Terminal Aerodrome Forecast
Issued by NWS Topeka, KS

Home | Current Version | Previous Version | Text Only | Print | Product List | Glossary On
Versions: 1 2 3 4 5 6 7 8 9 10 11 12 13 14 15 16 17
092
FTUS43 KTOP 310712 AAB
TAFTOP
TAF AMD
KTOP 310712Z 3107/0106 04004KT 5SM -TSRA SCT020 BKN035CB
     FM310800 04004KT 6SM -SHRA VCTS SCT012 BKN050CB
     FM311000 04004KT P6SM SCT010 BKN030
     FM311500 02005KT P6SM VCTS SCT015 BKN040CB
     FM312000 03005KT P6SM BKN040=

USA.gov is the U.S. government's official web portal to all federal, state and local government web resources and services.